Time;durP1;ratioP1;P1;durP2;ratioP2;P2;SDS_P1;SDS_P2;PMS_P1;PMS_P2;Temp;Humidity;BMP_temperature;BMP_pressure;BME280_temperature;BME280_humidity;BME280_pressure;Samples;Min_cycle;Max_cycle;Signal;HPM_P1;HPM_P2
2023/06/19 00:00:07;;;;;;;13.80;8.33;;;11.40;99.90;;;;;;4384766;28;658311;-69
2023/06/19 00:02:54;;;;;;;11.13;7.40;;;11.40;99.90;;;;;;4361617;28;658224;-68
2023/06/19 00:05:41;;;;;;;10.63;7.77;;;11.30;99.90;;;;;;4357470;28;657574;-68
2023/06/19 00:08:28;;;;;;;10.33;8.03;;;11.30;99.90;;;;;;4383843;28;658217;-68
2023/06/19 00:11:17;;;;;;;11.60;7.77;;;11.30;99.90;;;;;;4372594;28;657756;-69
2023/06/19 00:14:04;;;;;;;11.57;7.80;;;11.20;99.90;;;;;;4390737;28;658439;-69
2023/06/19 00:16:51;;;;;;;8.90;7.13;;;11.10;99.90;;;;;;4370155;28;658106;-68
2023/06/19 00:19:40;;;;;;;10.17;7.60;;;11.00;99.90;;;;;;4385092;28;658024;-68
2023/06/19 00:22:27;;;;;;;10.63;8.17;;;11.10;99.90;;;;;;4360860;28;658981;-68
2023/06/19 00:25:14;;;;;;;12.57;8.20;;;11.10;99.90;;;;;;4381224;28;657965;-68
2023/06/19 00:28:03;;;;;;;9.40;7.43;;;11.20;99.90;;;;;;4366417;28;658083;-68
2023/06/19 00:30:51;;;;;;;10.77;7.60;;;11.20;99.90;;;;;;4369579;28;656573;-68
2023/06/19 00:33:38;;;;;;;11.40;8.18;;;11.20;99.90;;;;;;4385449;28;659071;-68
2023/06/19 00:36:26;;;;;;;11.23;7.97;;;11.20;99.90;;;;;;4359567;28;657688;-68
2023/06/19 00:39:13;;;;;;;10.80;7.50;;;11.20;99.90;;;;;;4384477;28;658974;-67
2023/06/19 00:42:01;;;;;;;9.47;7.43;;;11.20;99.90;;;;;;4366288;28;657750;-68
2023/06/19 00:44:49;;;;;;;11.73;7.63;;;11.10;99.90;;;;;;4387490;28;656961;-69
2023/06/19 00:47:37;;;;;;;10.50;7.40;;;11.10;99.90;;;;;;4366181;28;658540;-68
2023/06/19 00:50:24;;;;;;;10.03;7.63;;;11.10;99.90;;;;;;4387326;28;657979;-68
2023/06/19 00:53:11;;;;;;;11.67;7.87;;;11.10;99.90;;;;;;4361190;28;657589;-68
2023/06/19 00:55:59;;;;;;;9.50;7.23;;;11.10;99.90;;;;;;4387044;28;658186;-68
2023/06/19 00:58:46;;;;;;;11.93;7.67;;;11.10;99.90;;;;;;4367047;28;656957;-68
2023/06/19 01:01:34;;;;;;;10.00;7.17;;;11.10;99.90;;;;;;4385970;28;658060;-68
2023/06/19 01:04:22;;;;;;;9.83;7.33;;;11.00;99.90;;;;;;4374879;28;658188;-68
2023/06/19 01:07:11;;;;;;;9.33;7.50;;;11.00;99.90;;;;;;4387488;28;657421;-68
2023/06/19 01:10:00;;;;;;;11.37;7.30;;;10.90;99.90;;;;;;4363609;28;657078;-68
2023/06/19 01:12:52;;;;;;;9.80;7.17;;;10.90;99.90;;;;;;4358260;28;659881;-67
2023/06/19 01:15:40;;;;;;;10.13;7.60;;;10.90;99.90;;;;;;4358600;28;657253;-68
2023/06/19 01:18:29;;;;;;;9.03;6.97;;;10.90;99.90;;;;;;4361965;28;657722;-69
2023/06/19 01:21:17;;;;;;;11.83;7.53;;;10.90;99.90;;;;;;4367254;28;656671;-68
2023/06/19 01:24:06;;;;;;;9.60;7.67;;;10.90;99.90;;;;;;4380749;28;657704;-68
2023/06/19 01:26:53;;;;;;;8.73;7.03;;;11.00;99.90;;;;;;4360851;28;657765;-68
2023/06/19 01:29:40;;;;;;;10.17;7.50;;;11.00;99.90;;;;;;4366436;28;656386;-69
2023/06/19 01:32:31;;;;;;;10.33;8.03;;;11.00;99.90;;;;;;4389003;28;658441;-68
2023/06/19 01:35:21;;;;;;;11.40;7.78;;;10.90;99.90;;;;;;4362707;28;659767;-68
2023/06/19 01:38:08;;;;;;;10.97;7.70;;;10.90;99.90;;;;;;4364143;28;658612;-69
2023/06/19 01:40:57;;;;;;;10.90;8.20;;;10.90;99.90;;;;;;4360260;28;657906;-69
2023/06/19 01:43:44;;;;;;;11.67;8.30;;;10.90;99.90;;;;;;4389437;28;657109;-67
2023/06/19 01:46:31;;;;;;;10.20;7.93;;;10.80;99.90;;;;;;4366867;28;657549;-68
2023/06/19 01:49:18;;;;;;;11.07;8.30;;;10.90;99.90;;;;;;4380264;28;658339;-67
2023/06/19 01:52:06;;;;;;;9.90;7.73;;;10.90;99.90;;;;;;4364201;28;658272;-68
2023/06/19 01:54:54;;;;;;;10.13;7.63;;;10.90;99.90;;;;;;4384600;28;656818;-68
2023/06/19 01:57:42;;;;;;;9.50;7.57;;;10.90;99.90;;;;;;4366740;28;658484;-69
2023/06/19 02:00:30;;;;;;;9.50;7.83;;;10.80;99.90;;;;;;4384659;28;656863;-67
2023/06/19 02:03:17;;;;;;;12.50;8.27;;;10.80;99.90;;;;;;4370051;28;656916;-68
2023/06/19 02:06:04;;;;;;;12.27;7.70;;;10.80;99.90;;;;;;4383634;28;657677;-69
2023/06/19 02:08:52;;;;;;;11.87;7.87;;;10.80;99.90;;;;;;4366468;28;657554;-68
2023/06/19 02:11:39;;;;;;;11.03;7.90;;;10.80;99.90;;;;;;4382898;28;658359;-68
2023/06/19 02:14:27;;;;;;;9.53;7.23;;;10.70;99.90;;;;;;4368423;28;657622;-68
2023/06/19 02:17:15;;;;;;;9.93;7.63;;;10.70;99.90;;;;;;4375914;28;656454;-69
2023/06/19 02:20:05;;;;;;;13.80;8.40;;;10.70;99.90;;;;;;4391350;28;657096;-68
2023/06/19 02:22:52;;;;;;;11.63;8.40;;;10.80;99.90;;;;;;4362280;28;658042;-68
2023/06/19 02:25:40;;;;;;;12.17;8.00;;;10.80;99.90;;;;;;4381087;28;657208;-69
2023/06/19 02:28:27;;;;;;;10.10;8.00;;;10.70;99.90;;;;;;4391649;28;657988;-68
2023/06/19 02:31:16;;;;;;;9.70;7.60;;;10.70;99.90;;;;;;4393186;28;657569;-67
2023/06/19 02:34:04;;;;;;;11.82;8.50;;;10.80;99.90;;;;;;4364237;28;657605;-68
2023/06/19 02:36:51;;;;;;;10.73;8.20;;;10.80;99.90;;;;;;4362550;28;657962;-68
2023/06/19 02:39:39;;;;;;;14.50;8.57;;;10.70;99.90;;;;;;4385239;28;658393;-68
2023/06/19 02:42:26;;;;;;;12.53;8.37;;;10.80;99.90;;;;;;4366483;28;657369;-68
2023/06/19 02:45:13;;;;;;;10.18;8.20;;;10.80;99.90;;;;;;4386200;28;658818;-68
2023/06/19 02:48:02;;;;;;;13.37;8.57;;;10.80;99.90;;;;;;4362700;28;657672;-68
2023/06/19 02:50:49;;;;;;;12.07;9.10;;;10.80;99.90;;;;;;4382297;28;657924;-68
2023/06/19 02:53:37;;;;;;;10.60;8.53;;;10.80;99.90;;;;;;4364905;28;657641;-68
2023/06/19 02:56:26;;;;;;;12.32;8.35;;;10.90;99.90;;;;;;4379453;28;658154;-68
2023/06/19 02:59:13;;;;;;;11.73;8.70;;;10.90;99.90;;;;;;4367080;28;657346;-68
2023/06/19 03:02:00;;;;;;;15.75;9.40;;;10.90;99.90;;;;;;4369634;28;657650;-69
2023/06/19 03:04:50;;;;;;;11.67;9.00;;;10.90;99.90;;;;;;4383124;27;658347;-68
2023/06/19 03:07:37;;;;;;;12.00;8.97;;;10.90;99.90;;;;;;4356968;28;658824;-69
2023/06/19 03:10:24;;;;;;;17.03;9.67;;;11.00;99.90;;;;;;4388455;28;657509;-68
2023/06/19 03:13:12;;;;;;;13.13;8.87;;;11.00;99.90;;;;;;4360053;28;658339;-68
2023/06/19 03:15:59;;;;;;;12.37;8.60;;;11.00;99.90;;;;;;4383233;28;657587;-68
2023/06/19 03:18:46;;;;;;;13.30;9.00;;;11.10;99.90;;;;;;4365601;28;658660;-69
2023/06/19 03:21:35;;;;;;;12.77;9.00;;;11.10;99.90;;;;;;4381515;28;658616;-68
2023/06/19 03:24:22;;;;;;;13.87;9.33;;;11.20;99.90;;;;;;4366050;28;657674;-68
2023/06/19 03:27:09;;;;;;;13.83;9.00;;;11.20;99.90;;;;;;4386145;28;658816;-69
2023/06/19 03:29:57;;;;;;;13.17;9.73;;;11.20;99.90;;;;;;4363286;28;658497;-68
2023/06/19 03:32:44;;;;;;;16.73;9.00;;;11.30;99.90;;;;;;4386264;28;658492;-68
2023/06/19 03:35:31;;;;;;;12.23;9.30;;;11.30;99.90;;;;;;4367380;28;657561;-68
2023/06/19 03:38:20;;;;;;;14.10;9.70;;;11.40;99.90;;;;;;4384174;28;659255;-69
2023/06/19 03:41:07;;;;;;;12.50;9.70;;;11.50;99.90;;;;;;4365848;28;658502;-67
2023/06/19 03:43:54;;;;;;;14.80;9.40;;;11.60;99.90;;;;;;4385878;28;657922;-68
2023/06/19 03:46:42;;;;;;;13.07;9.10;;;11.70;99.90;;;;;;4361757;28;658328;-68
2023/06/19 03:49:29;;;;;;;11.90;9.30;;;11.80;99.90;;;;;;4384756;28;658656;-68
2023/06/19 03:52:17;;;;;;;12.20;9.40;;;11.90;99.90;;;;;;4368504;28;658133;-68
2023/06/19 03:55:06;;;;;;;12.53;9.20;;;12.00;99.90;;;;;;4386134;28;657657;-68
2023/06/19 03:57:54;;;;;;;13.77;9.83;;;12.00;99.90;;;;;;4354609;28;658658;-68
2023/06/19 04:00:41;;;;;;;12.90;9.73;;;12.10;99.90;;;;;;4360413;28;658050;-69
2023/06/19 04:03:28;;;;;;;14.23;10.20;;;12.20;99.90;;;;;;4386689;28;658544;-68
2023/06/19 04:06:15;;;;;;;13.23;9.87;;;12.30;99.90;;;;;;4363664;28;659043;-69
2023/06/19 04:09:03;;;;;;;14.17;9.97;;;12.50;99.90;;;;;;4388556;28;657674;-68
2023/06/19 04:11:51;;;;;;;13.13;9.90;;;12.60;99.90;;;;;;4368760;28;657970;-69
2023/06/19 04:14:39;;;;;;;15.20;9.80;;;12.70;99.90;;;;;;4377680;28;657723;-69
2023/06/19 04:17:26;;;;;;;13.73;9.43;;;12.90;99.90;;;;;;4359102;28;657969;-68
2023/06/19 04:20:14;;;;;;;11.23;9.07;;;13.00;99.90;;;;;;4385707;28;657768;-68
2023/06/19 04:23:01;;;;;;;12.07;9.10;;;13.20;99.90;;;;;;4366410;28;658416;-68
2023/06/19 04:25:48;;;;;;;13.17;9.13;;;13.40;99.90;;;;;;4382421;28;657453;-68
2023/06/19 04:28:37;;;;;;;15.10;10.70;;;13.50;99.90;;;;;;4364041;28;657736;-69
2023/06/19 04:31:26;;;;;;;12.93;9.57;;;13.70;99.90;;;;;;4387547;28;659359;-69
2023/06/19 04:34:16;;;;;;;13.43;9.80;;;13.90;99.90;;;;;;4364434;28;658838;-68
2023/06/19 04:37:03;;;;;;;11.27;8.83;;;14.10;99.90;;;;;;4363730;28;658195;-69
2023/06/19 04:39:50;;;;;;;12.43;9.33;;;14.20;99.90;;;;;;4367573;28;658241;-69
2023/06/19 04:42:38;;;;;;;12.97;9.40;;;14.40;99.90;;;;;;4384099;28;659138;-69
2023/06/19 04:45:27;;;;;;;15.30;9.40;;;14.60;99.90;;;;;;4369342;28;657206;-69
2023/06/19 04:48:14;;;;;;;12.03;8.90;;;14.70;99.90;;;;;;4384437;28;657063;-68
2023/06/19 04:51:01;;;;;;;12.37;9.07;;;14.90;99.90;;;;;;4366830;28;658479;-70
2023/06/19 04:53:48;;;;;;;13.87;9.47;;;15.10;99.90;;;;;;4389664;28;658133;-70
2023/06/19 04:56:36;;;;;;;12.57;9.37;;;15.20;99.90;;;;;;4361378;28;657512;-69
2023/06/19 04:59:23;;;;;;;9.83;8.60;;;15.40;99.90;;;;;;4390311;28;658237;-69
2023/06/19 05:02:12;;;;;;;11.17;9.17;;;15.60;99.90;;;;;;4373710;28;656502;-70
2023/06/19 05:05:02;;;;;;;13.03;9.50;;;15.70;99.90;;;;;;4388912;28;657819;-68
2023/06/19 05:07:49;;;;;;;17.10;10.40;;;15.90;99.90;;;;;;4362271;28;658586;-70
2023/06/19 05:10:37;;;;;;;13.77;10.50;;;16.10;99.90;;;;;;4366659;28;658785;-69
2023/06/19 05:13:24;;;;;;;15.93;9.83;;;16.30;99.90;;;;;;4390292;28;658578;-69
2023/06/19 05:16:11;;;;;;;17.97;9.27;;;16.50;99.90;;;;;;4366262;28;658187;-70
2023/06/19 05:19:00;;;;;;;11.50;9.17;;;16.70;99.90;;;;;;4386027;28;658632;-69
2023/06/19 05:21:47;;;;;;;11.80;9.00;;;16.90;99.90;;;;;;4363979;28;659365;-69
2023/06/19 05:24:34;;;;;;;13.20;9.30;;;17.00;99.90;;;;;;4390066;28;657636;-71
2023/06/19 05:27:21;;;;;;;12.30;8.77;;;17.30;99.90;;;;;;4370556;28;658677;-71
2023/06/19 05:30:10;;;;;;;11.53;8.07;;;17.40;99.90;;;;;;4389101;28;658259;-71
2023/06/19 05:32:57;;;;;;;13.67;8.80;;;17.60;99.90;;;;;;4364322;28;659137;-70
2023/06/19 05:35:51;;;;;;;11.83;8.20;;;17.70;99.90;;;;;;4388070;28;657651;-71
2023/06/19 05:38:38;;;;;;;11.53;8.17;;;17.90;99.90;;;;;;4367417;28;657750;-68
2023/06/19 05:41:25;;;;;;;11.33;8.07;;;18.10;99.90;;;;;;4367272;28;657458;-70
2023/06/19 05:44:15;;;;;;;12.60;7.97;;;18.30;1.00;;;;;;4383772;28;658878;-69
2023/06/19 05:47:02;;;;;;;10.73;7.27;;;18.40;99.90;;;;;;4366862;28;657729;-69
2023/06/19 05:49:49;;;;;;;11.97;7.00;;;18.60;1.80;;;;;;4380406;28;658869;-69
2023/06/19 05:52:41;;;;;;;9.80;6.87;;;18.90;99.90;;;;;;4359909;28;657118;-69
2023/06/19 05:55:28;;;;;;;12.27;7.07;;;19.10;1.00;;;;;;4361943;28;657117;-68
2023/06/19 05:58:19;;;;;;;8.10;6.53;;;19.30;99.90;;;;;;4368260;28;656852;-70
2023/06/19 06:01:06;;;;;;;8.20;6.50;;;19.40;1.00;;;;;;4370541;28;656659;-69
2023/06/19 06:03:54;;;;;;;10.00;6.47;;;19.60;1.00;;;;;;4389656;28;655299;-68
2023/06/19 06:06:41;;;;;;;8.60;6.27;;;19.70;1.00;;;;;;4369922;28;656671;-69
2023/06/19 06:09:30;;;;;;;8.53;6.47;;;19.90;1.00;;;;;;4390736;28;656654;-68
2023/06/19 06:12:17;;;;;;;9.13;6.10;;;20.00;1.00;;;;;;4364394;28;656729;-69
2023/06/19 06:15:05;;;;;;;11.77;6.10;;;20.20;1.00;;;;;;4383692;28;655887;-68
2023/06/19 06:17:53;;;;;;;9.77;6.53;;;20.50;1.00;;;;;;4355348;28;657818;-68
2023/06/19 06:20:40;;;;;;;10.93;7.40;;;20.70;65.50;;;;;;4383119;28;656019;-70
2023/06/19 06:23:28;;;;;;;8.83;6.90;;;20.80;1.00;;;;;;4389684;28;657793;-69
2023/06/19 06:26:17;;;;;;;10.40;7.57;;;21.00;82.40;;;;;;4378977;28;655648;-69
2023/06/19 06:29:04;;;;;;;10.60;6.90;;;20.90;99.90;;;;;;4390285;28;658385;-69
2023/06/19 06:31:52;;;;;;;13.70;5.87;;;20.90;99.90;;;;;;4370291;28;658734;-69
2023/06/19 06:34:39;;;;;;;9.53;5.90;;;20.90;99.90;;;;;;4396110;28;657716;-68
2023/06/19 06:37:26;;;;;;;7.20;5.80;;;21.00;1.00;;;;;;4369540;28;656814;-68
2023/06/19 06:40:13;;;;;;;6.93;5.43;;;21.20;99.90;;;;;;4390512;28;656226;-68
2023/06/19 06:43:02;;;;;;;11.03;5.60;;;21.50;99.90;;;;;;4358477;28;656513;-68
2023/06/19 06:45:49;;;;;;;9.10;5.20;;;21.60;1.00;;;;;;4384561;28;658029;-69
2023/06/19 06:48:37;;;;;;;7.80;5.03;;;21.70;1.00;;;;;;4373435;28;656147;-68
2023/06/19 06:51:24;;;;;;;7.73;5.00;;;21.50;1.00;;;;;;4396348;28;655617;-68
2023/06/19 06:54:11;;;;;;;8.47;6.03;;;21.60;99.90;;;;;;4359365;28;655643;-69
2023/06/19 06:56:59;;;;;;;8.67;6.23;;;21.60;99.90;;;;;;4375380;28;658783;-68
2023/06/19 06:59:48;;;;;;;9.67;6.23;;;21.60;1.00;;;;;;4366536;28;656680;-69
2023/06/19 07:02:35;;;;;;;10.73;6.90;;;21.80;99.90;;;;;;4379640;28;655826;-69
2023/06/19 07:05:22;;;;;;;10.50;6.20;;;21.80;99.90;;;;;;4387421;28;658664;-68
2023/06/19 07:08:10;;;;;;;8.30;6.53;;;22.10;1.00;;;;;;4375089;28;657522;-68
2023/06/19 07:10:57;;;;;;;8.00;6.53;;;22.00;1.00;;;;;;4382962;28;656154;-68
2023/06/19 07:13:45;;;;;;;8.23;6.50;;;22.20;1.00;;;;;;4384639;28;655447;-69
2023/06/19 07:16:34;;;;;;;9.10;5.93;;;22.40;1.00;;;;;;4376737;28;657003;-68
2023/06/19 07:19:21;;;;;;;9.80;5.97;;;22.60;1.00;;;;;;4368112;28;655399;-69
2023/06/19 07:22:08;;;;;;;8.47;5.97;;;22.80;99.90;;;;;;4389008;28;656823;-68
2023/06/19 07:24:56;;;;;;;7.83;5.83;;;22.70;99.90;;;;;;4368639;28;657643;-69
2023/06/19 07:27:43;;;;;;;9.40;6.53;;;22.70;99.90;;;;;;4387124;28;657187;-68
2023/06/19 07:30:30;;;;;;;9.37;5.90;;;22.70;99.90;;;;;;4375011;28;656416;-69
2023/06/19 07:33:19;;;;;;;12.27;5.87;;;22.90;99.90;;;;;;4387747;28;657658;-68
2023/06/19 07:36:06;;;;;;;11.47;6.70;;;23.10;99.90;;;;;;4360374;28;657920;-69
2023/06/19 07:38:53;;;;;;;8.70;6.10;;;23.40;99.90;;;;;;4383399;28;658857;-68
2023/06/19 07:41:41;;;;;;;6.28;5.65;;;23.40;99.90;;;;;;4364761;28;657108;-68
2023/06/19 07:44:28;;;;;;;9.30;5.80;;;23.50;1.00;;;;;;4382317;28;657221;-69
2023/06/19 07:47:17;;;;;;;11.83;5.20;;;23.30;1.00;;;;;;4358372;28;656607;-69
2023/06/19 07:50:08;;;;;;;9.20;5.67;;;23.20;1.00;;;;;;4374703;28;656893;-69
2023/06/19 07:52:55;;;;;;;7.10;5.17;;;23.30;1.00;;;;;;4365417;28;655788;-69
2023/06/19 07:55:42;;;;;;;11.47;5.80;;;23.60;1.00;;;;;;4388890;28;655712;-68
2023/06/19 07:58:31;;;;;;;6.78;5.45;;;23.60;1.00;;;;;;4377299;28;657295;-68
2023/06/19 08:01:18;;;;;;;9.77;5.70;;;23.80;1.00;;;;;;4395632;28;656121;-68
2023/06/19 08:04:05;;;;;;;7.20;5.55;;;24.40;1.00;;;;;;4370639;28;655999;-68
2023/06/19 08:06:54;;;;;;;9.27;5.72;;;24.90;1.00;;;;;;4385503;28;656062;-68
2023/06/19 08:09:41;;;;;;;8.63;6.03;;;25.20;1.00;;;;;;4373225;28;655786;-68
2023/06/19 08:12:28;;;;;;;6.88;5.25;;;25.30;99.90;;;;;;4388997;28;656546;-69
2023/06/19 08:15:15;;;;;;;6.93;4.68;;;25.00;99.50;;;;;;4362184;28;657073;-68
2023/06/19 08:18:03;;;;;;;6.28;5.15;;;25.30;99.90;;;;;;4383253;28;657803;-68
2023/06/19 08:20:51;;;;;;;5.40;4.70;;;25.10;99.90;;;;;;4366512;28;656888;-69
2023/06/19 08:23:40;;;;;;;8.48;4.90;;;25.30;99.90;;;;;;4385488;28;657094;-68
2023/06/19 08:26:27;;;;;;;5.85;4.65;;;25.20;99.90;;;;;;4362776;28;657435;-68
2023/06/19 08:29:14;;;;;;;7.03;5.00;;;24.00;1.00;;;;;;4387001;28;656889;-68
2023/06/19 08:32:02;;;;;;;8.38;5.13;;;23.00;1.00;;;;;;4349574;28;655681;-69
2023/06/19 08:34:49;;;;;;;5.50;4.95;;;22.90;1.00;;;;;;4386072;28;655269;-68
2023/06/19 08:37:37;;;;;;;5.70;5.00;;;23.60;1.00;;;;;;4360570;28;655430;-68
2023/06/19 08:40:25;;;;;;;7.97;5.03;;;24.30;1.00;;;;;;4384875;28;654725;-68
2023/06/19 08:43:12;;;;;;;5.72;4.55;;;24.90;1.00;;;;;;4358830;28;656317;-68
2023/06/19 08:46:08;;;;;;;5.63;4.70;;;25.60;1.00;;;;;;4379990;28;655982;-68
2023/06/19 08:48:56;;;;;;;5.72;4.85;;;25.80;99.90;;;;;;4338486;28;655748;-70
2023/06/19 08:51:43;;;;;;;5.40;4.55;;;25.60;1.00;;;;;;4386111;28;656689;-67
2023/06/19 08:54:30;;;;;;;5.45;4.82;;;25.70;64.40;;;;;;4365053;28;655233;-67
2023/06/19 08:57:19;;;;;;;7.18;4.40;;;25.80;1.00;;;;;;4380587;28;657188;-67
2023/06/19 09:00:09;;;;;;;5.57;4.55;;;26.20;1.00;;;;;;4360033;28;655390;-66
2023/06/19 09:03:01;;;;;;;5.57;4.50;;;26.40;99.90;;;;;;4366634;28;656030;-68
2023/06/19 09:05:50;;;;;;;5.80;4.25;;;25.20;1.00;;;;;;4359212;28;657515;-66
2023/06/19 09:08:37;;;;;;;8.10;4.30;;;24.90;1.00;;;;;;4361939;28;655885;-67
2023/06/19 09:11:25;;;;;;;6.25;4.45;;;25.20;99.90;;;;;;4382298;28;655892;-70
2023/06/19 09:14:14;;;;;;;6.55;4.28;;;25.40;1.00;;;;;;4384782;28;656591;-66
2023/06/19 09:17:02;;;;;;;7.75;4.65;;;25.30;79.20;;;;;;4365213;28;655919;-69
2023/06/19 09:19:50;;;;;;;4.38;3.83;;;24.80;1.00;;;;;;4376103;28;656735;-66
2023/06/19 09:22:37;;;;;;;5.03;4.53;;;25.30;99.90;;;;;;4360331;28;656210;-68
2023/06/19 09:25:26;;;;;;;5.20;4.38;;;25.70;1.00;;;;;;4380932;28;656805;-68
2023/06/19 09:28:20;;;;;;;5.68;4.18;;;26.30;99.90;;;;;;4362618;28;657241;-68
2023/06/19 09:31:09;;;;;;;4.63;4.00;;;26.70;99.90;;;;;;4359350;28;657007;-68
2023/06/19 09:33:56;;;;;;;4.78;3.95;;;27.30;1.00;;;;;;4353263;28;656557;-68
2023/06/19 09:36:43;;;;;;;4.13;3.72;;;27.40;1.00;;;;;;4379647;28;656165;-68
2023/06/19 09:39:31;;;;;;;4.18;3.40;;;27.60;1.00;;;;;;4362621;28;655777;-68
2023/06/19 09:42:18;;;;;;;6.85;4.03;;;27.10;1.00;;;;;;4382135;28;656412;-69
2023/06/19 09:45:06;;;;;;;4.50;4.10;;;27.00;1.00;;;;;;4366938;28;655531;-69
2023/06/19 09:47:55;;;;;;;6.63;4.22;;;27.10;1.00;;;;;;4378378;28;656725;-69
2023/06/19 09:50:42;;;;;;;5.35;4.25;;;27.50;54.60;;;;;;4363210;28;656578;-66
2023/06/19 09:53:29;;;;;;;6.00;4.10;;;26.90;52.50;;;;;;4386936;28;656358;-68
2023/06/19 09:56:21;;;;;;;4.35;3.95;;;26.90;54.30;;;;;;4362830;28;657573;-68
2023/06/19 09:59:09;;;;;;;7.30;4.60;;;26.90;54.20;;;;;;4356587;28;658621;-68
2023/06/19 10:01:56;;;;;;;6.90;4.30;;;27.30;56.40;;;;;;4368988;28;656753;-69
2023/06/19 10:04:49;;;;;;;5.53;4.55;;;26.80;54.10;;;;;;4384034;28;657502;-66
2023/06/19 10:07:36;;;;;;;4.68;4.20;;;27.30;52.40;;;;;;4338495;28;657312;-69
2023/06/19 10:10:25;;;;;;;5.03;4.07;;;27.20;49.80;;;;;;4375509;28;657177;-68
2023/06/19 10:13:13;;;;;;;4.65;4.15;;;27.60;50.10;;;;;;4357974;28;657654;-68
2023/06/19 10:16:00;;;;;;;5.15;4.00;;;27.20;51.40;;;;;;4363935;28;657049;-68
2023/06/19 10:18:48;;;;;;;11.02;4.28;;;26.50;50.00;;;;;;4386434;28;657875;-69
2023/06/19 10:21:46;;;;;;;4.22;3.80;;;25.90;52.40;;;;;;4371598;28;658836;-69
2023/06/19 10:24:34;;;;;;;5.35;3.90;;;26.10;51.50;;;;;;4360026;28;656766;-69
2023/06/19 10:27:22;;;;;;;6.70;4.00;;;26.80;52.10;;;;;;4358649;28;656837;-69
2023/06/19 10:30:17;;;;;;;5.70;3.95;;;27.20;49.60;;;;;;4384622;28;656588;-67
2023/06/19 10:33:05;;;;;;;4.75;4.07;;;26.90;51.00;;;;;;4360267;28;656840;-68
2023/06/19 10:35:53;;;;;;;5.32;4.10;;;27.40;48.70;;;;;;4389882;28;657459;-68
2023/06/19 10:38:47;;;;;;;4.28;3.70;;;27.30;50.90;;;;;;4372362;28;657257;-68
2023/06/19 10:41:34;;;;;;;10.15;4.07;;;27.20;48.10;;;;;;4368220;28;656411;-68
2023/06/19 10:44:23;;;;;;;8.05;4.40;;;27.30;50.40;;;;;;4355782;28;657963;-67
2023/06/19 10:47:10;;;;;;;4.63;3.92;;;27.20;50.20;;;;;;4367821;28;656174;-68
2023/06/19 10:49:58;;;;;;;4.93;4.38;;;27.30;50.90;;;;;;4384907;28;658133;-67
2023/06/19 10:52:46;;;;;;;16.70;4.72;;;28.20;54.00;;;;;;4365442;28;656869;-67
2023/06/19 10:55:34;;;;;;;7.18;4.40;;;28.50;51.00;;;;;;4384494;28;659609;-68
2023/06/19 10:58:22;;;;;;;7.57;4.60;;;28.50;46.90;;;;;;4365354;28;656454;-67
2023/06/19 11:01:09;;;;;;;7.30;4.60;;;28.50;49.30;;;;;;4385617;28;656887;-68
2023/06/19 11:03:57;;;;;;;7.13;4.55;;;28.90;48.00;;;;;;4365370;28;656583;-67
2023/06/19 11:06:45;;;;;;;5.45;4.40;;;28.50;47.20;;;;;;4383774;28;656829;-68
2023/06/19 11:09:32;;;;;;;6.82;4.25;;;28.30;49.80;;;;;;4364571;28;657224;-67
2023/06/19 11:12:23;;;;;;;6.85;4.97;;;28.70;48.30;;;;;;4393124;28;656943;-68
2023/06/19 11:15:12;;;;;;;7.20;4.35;;;29.60;47.80;;;;;;4345485;28;656964;-68
2023/06/19 11:17:59;;;;;;;8.10;4.47;;;29.60;45.30;;;;;;4390808;28;656190;-67
2023/06/19 11:20:48;;;;;;;7.80;4.90;;;27.70;48.20;;;;;;4372019;28;656798;-67
2023/06/19 11:23:35;;;;;;;7.57;4.75;;;27.90;47.90;;;;;;4372071;28;657702;-68
2023/06/19 11:26:22;;;;;;;6.22;5.07;;;27.90;47.30;;;;;;4375295;28;657419;-67
2023/06/19 11:29:18;;;;;;;7.93;4.57;;;27.60;46.50;;;;;;4373408;28;656634;-68
2023/06/19 11:32:06;;;;;;;5.97;4.60;;;27.10;47.10;;;;;;4345141;28;657124;-68
2023/06/19 11:34:54;;;;;;;6.53;4.70;;;27.20;49.10;;;;;;4380590;28;657554;-68
2023/06/19 11:37:41;;;;;;;6.22;4.72;;;27.10;50.60;;;;;;4361563;28;656945;-68
2023/06/19 11:40:30;;;;;;;8.02;5.07;;;27.00;50.20;;;;;;4382904;28;657001;-68
2023/06/19 11:43:26;;;;;;;8.80;5.20;;;27.00;50.20;;;;;;4347968;28;658218;-68
2023/06/19 11:46:15;;;;;;;6.13;4.90;;;27.00;49.10;;;;;;4368918;28;657264;-67
2023/06/19 11:49:10;;;;;;;5.70;4.65;;;27.10;51.70;;;;;;4364825;28;656946;-68
2023/06/19 11:51:57;;;;;;;9.77;4.72;;;27.50;48.00;;;;;;4342603;28;658341;-67
2023/06/19 11:54:44;;;;;;;7.03;4.78;;;27.50;50.30;;;;;;4367730;28;656125;-68
2023/06/19 11:57:32;;;;;;;7.57;4.63;;;28.20;49.00;;;;;;4366981;28;656623;-68
2023/06/19 12:00:20;;;;;;;8.07;5.18;;;28.60;47.80;;;;;;4378894;28;656983;-68
2023/06/19 12:03:09;;;;;;;7.15;5.10;;;28.20;47.10;;;;;;4385783;28;657180;-68
2023/06/19 12:05:56;;;;;;;6.68;4.72;;;28.60;44.80;;;;;;4357988;28;657056;-69
2023/06/19 12:08:44;;;;;;;9.60;4.80;;;28.90;42.90;;;;;;4385266;28;656645;-68
2023/06/19 12:11:31;;;;;;;5.60;4.50;;;29.50;44.80;;;;;;4360430;28;657223;-67
2023/06/19 12:14:19;;;;;;;7.38;5.40;;;29.50;44.20;;;;;;4386815;28;657277;-67
2023/06/19 12:17:06;;;;;;;8.23;5.17;;;29.40;42.30;;;;;;4363510;28;656431;-67
2023/06/19 12:19:55;;;;;;;8.52;4.68;;;29.70;43.90;;;;;;4391219;28;657342;-67
2023/06/19 12:22:42;;;;;;;7.68;4.40;;;30.30;43.90;;;;;;4360819;28;657446;-67
2023/06/19 12:25:29;;;;;;;7.60;4.90;;;30.50;41.70;;;;;;4378724;28;656791;-67
2023/06/19 12:28:18;;;;;;;6.20;4.55;;;30.90;40.50;;;;;;4361772;28;657335;-68
2023/06/19 12:31:05;;;;;;;8.55;4.90;;;30.30;41.80;;;;;;4366553;28;656638;-68
2023/06/19 12:33:53;;;;;;;9.25;4.95;;;29.60;42.30;;;;;;4375191;28;657324;-69
2023/06/19 12:36:42;;;;;;;7.63;5.00;;;29.10;43.30;;;;;;4377119;28;656401;-68
2023/06/19 12:39:29;;;;;;;6.97;4.38;;;29.00;43.20;;;;;;4384014;28;656611;-68
2023/06/19 12:42:17;;;;;;;5.40;4.47;;;28.40;44.30;;;;;;4366969;28;656685;-67
2023/06/19 12:45:04;;;;;;;8.23;4.97;;;28.10;44.20;;;;;;4384967;28;656462;-68
2023/06/19 12:47:51;;;;;;;6.63;5.00;;;28.20;45.40;;;;;;4365152;28;656898;-68
2023/06/19 12:50:39;;;;;;;11.57;5.10;;;28.10;46.40;;;;;;4378427;28;656707;-68
2023/06/19 12:53:29;;;;;;;7.97;5.43;;;28.50;45.70;;;;;;4365575;28;657661;-68
2023/06/19 12:56:16;;;;;;;11.30;5.28;;;28.40;44.80;;;;;;4365630;28;656681;-68
2023/06/19 12:59:03;;;;;;;6.35;4.65;;;28.50;46.40;;;;;;4384893;28;659367;-68
2023/06/19 13:01:51;;;;;;;6.70;4.80;;;28.90;46.00;;;;;;4367284;28;656879;-68
2023/06/19 13:04:38;;;;;;;7.88;4.80;;;28.60;43.80;;;;;;4389177;28;657822;-68
2023/06/19 13:07:25;;;;;;;7.18;4.90;;;28.40;45.60;;;;;;4355342;28;656464;-68
2023/06/19 13:10:14;;;;;;;7.30;4.43;;;28.30;47.40;;;;;;4376310;28;657853;-68
2023/06/19 13:13:01;;;;;;;10.73;5.30;;;28.30;46.80;;;;;;4367247;28;656679;-68
2023/06/19 13:15:48;;;;;;;8.40;5.13;;;28.50;47.10;;;;;;4382535;28;659079;-68
2023/06/19 13:18:36;;;;;;;9.27;5.10;;;28.60;47.10;;;;;;4378944;28;656725;-68
2023/06/19 13:21:23;;;;;;;7.53;5.13;;;28.70;47.10;;;;;;4380363;28;657234;-68
2023/06/19 13:24:10;;;;;;;10.65;4.97;;;29.00;46.70;;;;;;4379027;28;657329;-68
2023/06/19 13:26:59;;;;;;;10.35;5.15;;;29.80;45.70;;;;;;4382592;28;658231;-68
2023/06/19 13:29:46;;;;;;;6.20;4.57;;;30.40;43.30;;;;;;4369722;28;657612;-68
2023/06/19 13:32:33;;;;;;;7.78;5.28;;;30.30;41.50;;;;;;4388246;28;657019;-68
2023/06/19 13:35:21;;;;;;;30.83;5.25;;;30.10;42.90;;;;;;4371587;28;657114;-68
2023/06/19 13:38:09;;;;;;;10.50;5.25;;;30.00;44.10;;;;;;4392829;28;658520;-67
2023/06/19 13:40:56;;;;;;;9.87;5.13;;;30.00;43.20;;;;;;4371409;28;657676;-68
2023/06/19 13:43:47;;;;;;;10.32;5.20;;;29.90;43.60;;;;;;4380921;28;656740;-68
2023/06/19 13:46:34;;;;;;;9.18;5.43;;;29.80;43.50;;;;;;4370626;28;657351;-68
2023/06/19 13:49:21;;;;;;;6.45;4.85;;;29.50;43.70;;;;;;4366321;28;656381;-68
2023/06/19 13:52:09;;;;;;;6.40;4.95;;;29.30;44.70;;;;;;4388477;28;657164;-68
2023/06/19 13:54:56;;;;;;;10.63;5.30;;;29.00;45.10;;;;;;4380757;28;657071;-68
2023/06/19 13:57:43;;;;;;;12.65;5.50;;;28.90;45.80;;;;;;4390113;28;658826;-68
2023/06/19 14:00:32;;;;;;;6.82;5.13;;;28.70;46.00;;;;;;4359873;28;657443;-68
2023/06/19 14:03:19;;;;;;;11.05;5.00;;;28.40;47.30;;;;;;4393961;28;656753;-68
2023/06/19 14:06:06;;;;;;;6.60;5.03;;;28.30;47.50;;;;;;4365131;28;657359;-68
2023/06/19 14:08:54;;;;;;;8.20;5.68;;;28.40;48.00;;;;;;4389434;28;656934;-68
2023/06/19 14:11:41;;;;;;;12.00;5.35;;;28.50;46.80;;;;;;4368737;28;656570;-67
2023/06/19 14:14:28;;;;;;;8.52;4.72;;;29.00;47.40;;;;;;4387780;28;657192;-68
2023/06/19 14:17:17;;;;;;;8.35;5.30;;;29.40;46.50;;;;;;4362427;28;656852;-68